sensor_id;sensor_type;location;lat;lon;timestamp;temperature;humidity
21849;DHT22;11089;49.852;19.700;2022-12-29T00:02:27;2.90;1.00
21849;DHT22;11089;49.852;19.700;2022-12-29T00:05:28;2.90;1.00
21849;DHT22;11089;49.852;19.700;2022-12-29T00:08:29;2.70;1.00
21849;DHT22;11089;49.852;19.700;2022-12-29T00:11:44;2.70;1.00
21849;DHT22;11089;49.852;19.700;2022-12-29T00:14:45;2.70;1.00
21849;DHT22;11089;49.852;19.700;2022-12-29T00:17:59;2.80;1.00
21849;DHT22;11089;49.852;19.700;2022-12-29T00:21:00;3.00;1.00
21849;DHT22;11089;49.852;19.700;2022-12-29T00:24:17;3.00;1.00
21849;DHT22;11089;49.852;19.700;2022-12-29T00:27:28;3.20;1.00
21849;DHT22;11089;49.852;19.700;2022-12-29T00:30:44;3.00;1.00
21849;DHT22;11089;49.852;19.700;2022-12-29T00:33:59;2.90;1.00
21849;DHT22;11089;49.852;19.700;2022-12-29T00:37:14;2.80;1.00
21849;DHT22;11089;49.852;19.700;2022-12-29T00:40:15;2.80;1.00
21849;DHT22;11089;49.852;19.700;2022-12-29T00:43:30;2.80;1.00
21849;DHT22;11089;49.852;19.700;2022-12-29T00:46:54;2.80;1.00
21849;DHT22;11089;49.852;19.700;2022-12-29T00:49:54;2.80;1.00
21849;DHT22;11089;49.852;19.700;2022-12-29T00:52:55;3.00;1.00
21849;DHT22;11089;49.852;19.700;2022-12-29T00:55:56;2.90;1.00
21849;DHT22;11089;49.852;19.700;2022-12-29T00:59:05;2.80;1.00
21849;DHT22;11089;49.852;19.700;2022-12-29T01:02:07;2.80;1.00
21849;DHT22;11089;49.852;19.700;2022-12-29T01:05:08;2.90;1.00
21849;DHT22;11089;49.852;19.700;2022-12-29T01:08:09;2.80;1.00
21849;DHT22;11089;49.852;19.700;2022-12-29T01:11:11;3.30;1.00
21849;DHT22;11089;49.852;19.700;2022-12-29T01:14:13;3.20;1.00
21849;DHT22;11089;49.852;19.700;2022-12-29T01:17:14;3.00;1.00
21849;DHT22;11089;49.852;19.700;2022-12-29T01:20:15;3.10;1.00
21849;DHT22;11089;49.852;19.700;2022-12-29T01:23:16;3.10;1.00
21849;DHT22;11089;49.852;19.700;2022-12-29T01:26:17;3.40;1.00
21849;DHT22;11089;49.852;19.700;2022-12-29T01:29:18;3.60;1.00
21849;DHT22;11089;49.852;19.700;2022-12-29T01:32:19;3.80;1.00
21849;DHT22;11089;49.852;19.700;2022-12-29T01:35:20;4.00;1.00
21849;DHT22;11089;49.852;19.700;2022-12-29T01:38:21;4.10;1.00
21849;DHT22;11089;49.852;19.700;2022-12-29T01:41:22;4.10;1.00
21849;DHT22;11089;49.852;19.700;2022-12-29T01:48:14;3.70;1.00
21849;DHT22;11089;49.852;19.700;2022-12-29T01:51:16;3.80;1.00
21849;DHT22;11089;49.852;19.700;2022-12-29T01:54:33;3.70;1.00
21849;DHT22;11089;49.852;19.700;2022-12-29T01:57:39;3.60;1.00
21849;DHT22;11089;49.852;19.700;2022-12-29T02:00:41;3.60;1.00
21849;DHT22;11089;49.852;19.700;2022-12-29T02:03:42;3.80;1.00
21849;DHT22;11089;49.852;19.700;2022-12-29T02:06:58;4.10;1.00
21849;DHT22;11089;49.852;19.700;2022-12-29T02:10:02;4.30;1.00
21849;DHT22;11089;49.852;19.700;2022-12-29T02:13:03;4.50;1.00
21849;DHT22;11089;49.852;19.700;2022-12-29T02:52:29;5.30;1.00
21849;DHT22;11089;49.852;19.700;2022-12-29T02:55:31;5.30;1.00
21849;DHT22;11089;49.852;19.700;2022-12-29T02:58:32;5.30;1.00
21849;DHT22;11089;49.852;19.700;2022-12-29T03:05:19;5.30;1.00
21849;DHT22;11089;49.852;19.700;2022-12-29T03:08:30;5.20;1.00
21849;DHT22;11089;49.852;19.700;2022-12-29T03:11:45;5.10;1.00
21849;DHT22;11089;49.852;19.700;2022-12-29T03:15:17;5.10;1.00
21849;DHT22;11089;49.852;19.700;2022-12-29T03:18:45;5.10;1.00
21849;DHT22;11089;49.852;19.700;2022-12-29T03:22:12;5.00;1.00
21849;DHT22;11089;49.852;19.700;2022-12-29T03:25:29;4.90;1.00
21849;DHT22;11089;49.852;19.700;2022-12-29T03:28:39;4.70;1.00
21849;DHT22;11089;49.852;19.700;2022-12-29T03:31:42;4.70;1.00
21849;DHT22;11089;49.852;19.700;2022-12-29T03:34:44;4.70;1.00
21849;DHT22;11089;49.852;19.700;2022-12-29T03:41:19;4.50;1.00
21849;DHT22;11089;49.852;19.700;2022-12-29T03:44:21;4.50;1.00
21849;DHT22;11089;49.852;19.700;2022-12-29T03:47:22;4.50;1.00
21849;DHT22;11089;49.852;19.700;2022-12-29T03:50:24;4.50;1.00
21849;DHT22;11089;49.852;19.700;2022-12-29T03:53:25;4.40;1.00
21849;DHT22;11089;49.852;19.700;2022-12-29T03:56:25;4.40;1.00
21849;DHT22;11089;49.852;19.700;2022-12-29T03:59:26;4.40;1.00
21849;DHT22;11089;49.852;19.700;2022-12-29T04:02:27;4.30;1.00
21849;DHT22;11089;49.852;19.700;2022-12-29T04:05:28;4.30;1.00
21849;DHT22;11089;49.852;19.700;2022-12-29T04:08:29;4.20;1.00
21849;DHT22;11089;49.852;19.700;2022-12-29T04:11:30;4.10;1.00
21849;DHT22;11089;49.852;19.700;2022-12-29T04:14:31;4.00;1.00
21849;DHT22;11089;49.852;19.700;2022-12-29T04:17:32;4.00;1.00
21849;DHT22;11089;49.852;19.700;2022-12-29T04:20:33;3.90;1.00
21849;DHT22;11089;49.852;19.700;2022-12-29T04:23:47;3.80;1.00
21849;DHT22;11089;49.852;19.700;2022-12-29T04:26:48;3.70;1.00
21849;DHT22;11089;49.852;19.700;2022-12-29T04:29:49;3.70;1.00
21849;DHT22;11089;49.852;19.700;2022-12-29T04:32:50;3.60;1.00
21849;DHT22;11089;49.852;19.700;2022-12-29T04:35:51;3.60;1.00
21849;DHT22;11089;49.852;19.700;2022-12-29T04:38:55;3.70;1.00
21849;DHT22;11089;49.852;19.700;2022-12-29T04:41:57;3.90;1.00
21849;DHT22;11089;49.852;19.700;2022-12-29T04:44:57;3.90;1.00
21849;DHT22;11089;49.852;19.700;2022-12-29T04:47:58;3.90;1.00
21849;DHT22;11089;49.852;19.700;2022-12-29T04:50:59;4.00;1.00
21849;DHT22;11089;49.852;19.700;2022-12-29T04:54:01;4.10;1.00
21849;DHT22;11089;49.852;19.700;2022-12-29T04:57:02;4.20;1.00
21849;DHT22;11089;49.852;19.700;2022-12-29T05:00:03;4.20;1.00
21849;DHT22;11089;49.852;19.700;2022-12-29T05:03:04;4.00;1.00
21849;DHT22;11089;49.852;19.700;2022-12-29T05:06:05;4.10;1.00
21849;DHT22;11089;49.852;19.700;2022-12-29T05:09:06;4.40;1.00
21849;DHT22;11089;49.852;19.700;2022-12-29T05:12:08;4.80;1.00
21849;DHT22;11089;49.852;19.700;2022-12-29T05:15:10;5.00;1.00
21849;DHT22;11089;49.852;19.700;2022-12-29T05:18:11;5.00;1.00
21849;DHT22;11089;49.852;19.700;2022-12-29T05:21:12;5.10;1.00
21849;DHT22;11089;49.852;19.700;2022-12-29T05:24:13;5.10;1.00
21849;DHT22;11089;49.852;19.700;2022-12-29T05:27:14;4.80;1.00
21849;DHT22;11089;49.852;19.700;2022-12-29T05:30:15;4.70;1.00
21849;DHT22;11089;49.852;19.700;2022-12-29T05:33:17;4.70;1.00
21849;DHT22;11089;49.852;19.700;2022-12-29T05:36:18;4.80;1.00
21849;DHT22;11089;49.852;19.700;2022-12-29T05:39:19;4.90;1.00
21849;DHT22;11089;49.852;19.700;2022-12-29T05:42:20;4.80;1.00
21849;DHT22;11089;49.852;19.700;2022-12-29T05:45:21;5.00;1.00
21849;DHT22;11089;49.852;19.700;2022-12-29T05:48:22;5.00;1.00
21849;DHT22;11089;49.852;19.700;2022-12-29T05:51:23;5.00;1.00
21849;DHT22;11089;49.852;19.700;2022-12-29T05:54:24;5.00;1.00
21849;DHT22;11089;49.852;19.700;2022-12-29T05:57:25;5.20;1.00
21849;DHT22;11089;49.852;19.700;2022-12-29T06:00:26;5.20;1.00
21849;DHT22;11089;49.852;19.700;2022-12-29T06:03:27;5.10;1.00
21849;DHT22;11089;49.852;19.700;2022-12-29T06:06:28;5.30;1.00
21849;DHT22;11089;49.852;19.700;2022-12-29T06:09:29;5.20;1.00
21849;DHT22;11089;49.852;19.700;2022-12-29T06:12:30;5.20;1.00
21849;DHT22;11089;49.852;19.700;2022-12-29T06:15:32;5.20;1.00
21849;DHT22;11089;49.852;19.700;2022-12-29T06:18:33;5.40;1.00
21849;DHT22;11089;49.852;19.700;2022-12-29T06:21:33;5.50;1.00
21849;DHT22;11089;49.852;19.700;2022-12-29T06:24:34;5.40;1.00
21849;DHT22;11089;49.852;19.700;2022-12-29T06:27:35;5.50;1.00
21849;DHT22;11089;49.852;19.700;2022-12-29T06:30:36;5.60;1.00
21849;DHT22;11089;49.852;19.700;2022-12-29T06:33:38;5.70;1.00
21849;DHT22;11089;49.852;19.700;2022-12-29T06:36:39;5.70;1.00
21849;DHT22;11089;49.852;19.700;2022-12-29T06:39:40;5.60;1.00
21849;DHT22;11089;49.852;19.700;2022-12-29T06:42:41;5.60;1.00
21849;DHT22;11089;49.852;19.700;2022-12-29T06:45:43;5.50;1.00
21849;DHT22;11089;49.852;19.700;2022-12-29T06:48:44;5.60;1.00
21849;DHT22;11089;49.852;19.700;2022-12-29T06:51:45;5.80;1.00
21849;DHT22;11089;49.852;19.700;2022-12-29T06:54:46;5.80;1.00
21849;DHT22;11089;49.852;19.700;2022-12-29T06:57:47;5.80;1.00
21849;DHT22;11089;49.852;19.700;2022-12-29T07:00:48;5.80;1.00
21849;DHT22;11089;49.852;19.700;2022-12-29T07:03:49;5.90;1.00
21849;DHT22;11089;49.852;19.700;2022-12-29T07:06:50;6.00;1.00
21849;DHT22;11089;49.852;19.700;2022-12-29T07:09:50;6.00;1.00
21849;DHT22;11089;49.852;19.700;2022-12-29T07:12:51;6.00;1.00
21849;DHT22;11089;49.852;19.700;2022-12-29T07:15:52;5.90;1.00
21849;DHT22;11089;49.852;19.700;2022-12-29T07:18:53;5.90;1.00
21849;DHT22;11089;49.852;19.700;2022-12-29T07:21:55;5.90;1.00
21849;DHT22;11089;49.852;19.700;2022-12-29T07:24:56;5.80;1.00
21849;DHT22;11089;49.852;19.700;2022-12-29T07:27:56;5.80;1.00
21849;DHT22;11089;49.852;19.700;2022-12-29T07:30:58;5.70;1.00
21849;DHT22;11089;49.852;19.700;2022-12-29T07:33:59;5.70;1.00
21849;DHT22;11089;49.852;19.700;2022-12-29T07:37:00;5.80;1.00
21849;DHT22;11089;49.852;19.700;2022-12-29T07:40:02;5.90;1.00
21849;DHT22;11089;49.852;19.700;2022-12-29T07:43:04;5.90;1.00
21849;DHT22;11089;49.852;19.700;2022-12-29T07:46:05;5.90;1.00
21849;DHT22;11089;49.852;19.700;2022-12-29T07:49:06;6.00;1.00
21849;DHT22;11089;49.852;19.700;2022-12-29T07:52:07;6.00;1.00
21849;DHT22;11089;49.852;19.700;2022-12-29T07:55:09;6.10;1.00
21849;DHT22;11089;49.852;19.700;2022-12-29T07:58:10;6.30;1.00
21849;DHT22;11089;49.852;19.700;2022-12-29T08:01:11;6.40;1.00
21849;DHT22;11089;49.852;19.700;2022-12-29T08:04:12;6.60;1.00
21849;DHT22;11089;49.852;19.700;2022-12-29T08:07:13;6.80;1.00
21849;DHT22;11089;49.852;19.700;2022-12-29T08:10:15;6.80;99.90
21849;DHT22;11089;49.852;19.700;2022-12-29T08:13:16;7.00;99.90
21849;DHT22;11089;49.852;19.700;2022-12-29T08:16:17;7.10;99.90
21849;DHT22;11089;49.852;19.700;2022-12-29T08:19:18;7.20;99.90
21849;DHT22;11089;49.852;19.700;2022-12-29T08:22:19;7.20;99.90
21849;DHT22;11089;49.852;19.700;2022-12-29T08:25:20;7.30;99.90
21849;DHT22;11089;49.852;19.700;2022-12-29T08:28:21;7.30;99.90
21849;DHT22;11089;49.852;19.700;2022-12-29T08:31:23;7.40;99.90
21849;DHT22;11089;49.852;19.700;2022-12-29T08:34:24;7.50;99.90
21849;DHT22;11089;49.852;19.700;2022-12-29T08:37:25;7.70;99.90
21849;DHT22;11089;49.852;19.700;2022-12-29T08:40:26;7.80;99.90
21849;DHT22;11089;49.852;19.700;2022-12-29T08:43:28;7.90;99.90
21849;DHT22;11089;49.852;19.700;2022-12-29T08:46:29;8.00;99.90
21849;DHT22;11089;49.852;19.700;2022-12-29T08:49:30;8.00;99.90
21849;DHT22;11089;49.852;19.700;2022-12-29T08:52:31;8.10;99.90
21849;DHT22;11089;49.852;19.700;2022-12-29T08:55:32;8.20;99.90
21849;DHT22;11089;49.852;19.700;2022-12-29T08:58:33;8.40;99.90
21849;DHT22;11089;49.852;19.700;2022-12-29T09:01:34;8.40;99.90
21849;DHT22;11089;49.852;19.700;2022-12-29T09:04:36;8.50;99.90
21849;DHT22;11089;49.852;19.700;2022-12-29T09:07:37;8.50;99.90
21849;DHT22;11089;49.852;19.700;2022-12-29T09:10:38;8.50;99.90
21849;DHT22;11089;49.852;19.700;2022-12-29T09:13:39;8.60;99.90
21849;DHT22;11089;49.852;19.700;2022-12-29T09:16:40;8.70;99.90
21849;DHT22;11089;49.852;19.700;2022-12-29T09:19:55;9.00;99.90
21849;DHT22;11089;49.852;19.700;2022-12-29T09:22:56;9.20;99.90
21849;DHT22;11089;49.852;19.700;2022-12-29T09:25:57;9.30;99.90
21849;DHT22;11089;49.852;19.700;2022-12-29T09:28:58;9.30;99.90
21849;DHT22;11089;49.852;19.700;2022-12-29T09:31:59;9.30;99.90
21849;DHT22;11089;49.852;19.700;2022-12-29T09:35:00;9.40;99.90
21849;DHT22;11089;49.852;19.700;2022-12-29T09:38:01;9.40;99.90
21849;DHT22;11089;49.852;19.700;2022-12-29T09:41:21;9.50;99.90
21849;DHT22;11089;49.852;19.700;2022-12-29T09:44:44;9.60;99.90
21849;DHT22;11089;49.852;19.700;2022-12-29T09:47:48;9.80;99.90
21849;DHT22;11089;49.852;19.700;2022-12-29T09:50:59;9.80;99.90
21849;DHT22;11089;49.852;19.700;2022-12-29T09:54:14;10.00;99.90
21849;DHT22;11089;49.852;19.700;2022-12-29T09:57:45;10.00;99.90
21849;DHT22;11089;49.852;19.700;2022-12-29T10:03:58;10.20;99.90
21849;DHT22;11089;49.852;19.700;2022-12-29T10:07:05;10.10;99.90
21849;DHT22;11089;49.852;19.700;2022-12-29T10:23:48;10.10;99.90
21849;DHT22;11089;49.852;19.700;2022-12-29T10:26:51;10.10;99.90
21849;DHT22;11089;49.852;19.700;2022-12-29T10:29:55;10.30;99.90
21849;DHT22;11089;49.852;19.700;2022-12-29T10:33:02;10.50;99.90
21849;DHT22;11089;49.852;19.700;2022-12-29T10:36:16;10.60;99.90
21849;DHT22;11089;49.852;19.700;2022-12-29T10:39:40;10.70;99.90
21849;DHT22;11089;49.852;19.700;2022-12-29T10:42:47;10.80;99.90
21849;DHT22;11089;49.852;19.700;2022-12-29T10:46:02;11.00;99.90
21849;DHT22;11089;49.852;19.700;2022-12-29T10:49:06;11.20;99.90
21849;DHT22;11089;49.852;19.700;2022-12-29T10:52:12;11.40;99.90
21849;DHT22;11089;49.852;19.700;2022-12-29T10:55:21;11.50;99.90
21849;DHT22;11089;49.852;19.700;2022-12-29T10:58:24;11.70;99.90
21849;DHT22;11089;49.852;19.700;2022-12-29T11:01:34;11.70;99.90
21849;DHT22;11089;49.852;19.700;2022-12-29T11:08:02;11.50;99.90
21849;DHT22;11089;49.852;19.700;2022-12-29T11:11:09;11.60;99.90
21849;DHT22;11089;49.852;19.700;2022-12-29T11:14:18;11.60;99.90
21849;DHT22;11089;49.852;19.700;2022-12-29T11:17:19;11.70;99.90
21849;DHT22;11089;49.852;19.700;2022-12-29T11:20:32;11.70;99.90
21849;DHT22;11089;49.852;19.700;2022-12-29T11:23:39;11.50;99.90
21849;DHT22;11089;49.852;19.700;2022-12-29T11:26:43;11.60;99.90
21849;DHT22;11089;49.852;19.700;2022-12-29T11:29:45;11.50;99.90
21849;DHT22;11089;49.852;19.700;2022-12-29T11:32:53;11.40;99.90
21849;DHT22;11089;49.852;19.700;2022-12-29T11:36:00;11.20;99.90
21849;DHT22;11089;49.852;19.700;2022-12-29T11:39:02;11.00;99.90
21849;DHT22;11089;49.852;19.700;2022-12-29T11:42:04;10.90;99.90
21849;DHT22;11089;49.852;19.700;2022-12-29T11:45:22;10.80;99.90
21849;DHT22;11089;49.852;19.700;2022-12-29T11:48:31;10.70;99.90
21849;DHT22;11089;49.852;19.700;2022-12-29T11:51:47;10.70;99.90
21849;DHT22;11089;49.852;19.700;2022-12-29T11:54:50;10.70;99.90
21849;DHT22;11089;49.852;19.700;2022-12-29T11:57:52;10.80;99.90
21849;DHT22;11089;49.852;19.700;2022-12-29T12:00:56;10.90;99.90
21849;DHT22;11089;49.852;19.700;2022-12-29T12:04:16;10.90;99.90
21849;DHT22;11089;49.852;19.700;2022-12-29T12:10:58;10.70;99.90
21849;DHT22;11089;49.852;19.700;2022-12-29T12:17:23;10.80;99.90
21849;DHT22;11089;49.852;19.700;2022-12-29T12:20:49;11.00;99.90
21849;DHT22;11089;49.852;19.700;2022-12-29T12:24:00;11.10;99.90
21849;DHT22;11089;49.852;19.700;2022-12-29T12:27:16;11.10;99.90
21849;DHT22;11089;49.852;19.700;2022-12-29T12:30:21;11.10;99.90
21849;DHT22;11089;49.852;19.700;2022-12-29T12:33:33;11.00;99.90
21849;DHT22;11089;49.852;19.700;2022-12-29T12:39:49;10.90;99.90
21849;DHT22;11089;49.852;19.700;2022-12-29T12:43:31;10.90;99.90
21849;DHT22;11089;49.852;19.700;2022-12-29T12:50:13;10.90;99.90
21849;DHT22;11089;49.852;19.700;2022-12-29T12:57:02;11.00;99.90
21849;DHT22;11089;49.852;19.700;2022-12-29T13:00:00;11.00;99.90
21849;DHT22;11089;49.852;19.700;2022-12-29T13:03:17;11.00;99.90
21849;DHT22;11089;49.852;19.700;2022-12-29T13:26:22;10.60;99.90
21849;DHT22;11089;49.852;19.700;2022-12-29T13:34:03;10.50;99.90
21849;DHT22;11089;49.852;19.700;2022-12-29T13:36:53;10.50;99.90
21849;DHT22;11089;49.852;19.700;2022-12-29T13:40:02;10.40;99.90
21849;DHT22;11089;49.852;19.700;2022-12-29T13:43:05;10.40;99.90
21849;DHT22;11089;49.852;19.700;2022-12-29T13:46:28;10.40;99.90
21849;DHT22;11089;49.852;19.700;2022-12-29T13:49:30;10.40;99.90
21849;DHT22;11089;49.852;19.700;2022-12-29T13:55:59;10.30;99.90
21849;DHT22;11089;49.852;19.700;2022-12-29T14:02:37;10.20;99.90
21849;DHT22;11089;49.852;19.700;2022-12-29T14:05:45;10.20;99.90
21849;DHT22;11089;49.852;19.700;2022-12-29T14:09:04;10.10;99.90
21849;DHT22;11089;49.852;19.700;2022-12-29T14:15:26;10.30;99.90
21849;DHT22;11089;49.852;19.700;2022-12-29T14:18:42;10.20;99.90
21849;DHT22;11089;49.852;19.700;2022-12-29T14:21:59;10.20;99.90
21849;DHT22;11089;49.852;19.700;2022-12-29T14:25:01;10.20;99.90
21849;DHT22;11089;49.852;19.700;2022-12-29T14:28:16;10.30;99.90
21849;DHT22;11089;49.852;19.700;2022-12-29T14:34:30;10.30;99.90
21849;DHT22;11089;49.852;19.700;2022-12-29T14:37:38;10.30;99.90
21849;DHT22;11089;49.852;19.700;2022-12-29T14:40:39;10.30;99.90
21849;DHT22;11089;49.852;19.700;2022-12-29T14:43:40;10.30;99.90
21849;DHT22;11089;49.852;19.700;2022-12-29T14:46:58;10.30;99.90
21849;DHT22;11089;49.852;19.700;2022-12-29T14:53:45;10.20;99.90
21849;DHT22;11089;49.852;19.700;2022-12-29T14:56:47;10.10;99.90
21849;DHT22;11089;49.852;19.700;2022-12-29T14:59:54;10.00;99.90
21849;DHT22;11089;49.852;19.700;2022-12-29T15:06:28;9.90;99.90
21849;DHT22;11089;49.852;19.700;2022-12-29T15:12:37;9.70;99.90
21849;DHT22;11089;49.852;19.700;2022-12-29T15:15:40;9.70;99.90
21849;DHT22;11089;49.852;19.700;2022-12-29T15:18:41;9.60;1.00
21849;DHT22;11089;49.852;19.700;2022-12-29T15:21:43;9.60;1.00
21849;DHT22;11089;49.852;19.700;2022-12-29T15:24:45;9.50;1.00
21849;DHT22;11089;49.852;19.700;2022-12-29T15:27:57;9.50;1.00
21849;DHT22;11089;49.852;19.700;2022-12-29T15:31:04;9.50;1.00
21849;DHT22;11089;49.852;19.700;2022-12-29T15:34:12;9.50;1.00
21849;DHT22;11089;49.852;19.700;2022-12-29T15:37:33;9.50;1.00
21849;DHT22;11089;49.852;19.700;2022-12-29T15:40:35;9.50;1.00
21849;DHT22;11089;49.852;19.700;2022-12-29T15:46:55;9.40;1.00
21849;DHT22;11089;49.852;19.700;2022-12-29T15:53:23;9.30;1.00
21849;DHT22;11089;49.852;19.700;2022-12-29T15:56:29;9.20;1.00
21849;DHT22;11089;49.852;19.700;2022-12-29T15:59:32;9.20;1.00
21849;DHT22;11089;49.852;19.700;2022-12-29T16:02:34;9.20;1.00
21849;DHT22;11089;49.852;19.700;2022-12-29T16:05:37;9.20;1.00
21849;DHT22;11089;49.852;19.700;2022-12-29T16:08:39;9.10;1.00
21849;DHT22;11089;49.852;19.700;2022-12-29T16:11:49;9.00;1.00
21849;DHT22;11089;49.852;19.700;2022-12-29T16:15:14;8.90;1.00
21849;DHT22;11089;49.852;19.700;2022-12-29T16:18:28;9.00;1.00
21849;DHT22;11089;49.852;19.700;2022-12-29T16:21:33;9.00;1.00
21849;DHT22;11089;49.852;19.700;2022-12-29T16:24:37;9.00;1.00
21849;DHT22;11089;49.852;19.700;2022-12-29T16:27:41;8.90;1.00
21849;DHT22;11089;49.852;19.700;2022-12-29T16:30:42;8.80;1.00
21849;DHT22;11089;49.852;19.700;2022-12-29T16:33:51;8.80;1.00
21849;DHT22;11089;49.852;19.700;2022-12-29T16:36:55;8.70;1.00
21849;DHT22;11089;49.852;19.700;2022-12-29T16:40:13;8.70;1.00
21849;DHT22;11089;49.852;19.700;2022-12-29T16:43:36;8.60;1.00
21849;DHT22;11089;49.852;19.700;2022-12-29T16:50:12;8.50;1.00
21849;DHT22;11089;49.852;19.700;2022-12-29T16:53:28;8.40;1.00
21849;DHT22;11089;49.852;19.700;2022-12-29T16:56:33;8.30;1.00
21849;DHT22;11089;49.852;19.700;2022-12-29T16:59:39;8.30;1.00
21849;DHT22;11089;49.852;19.700;2022-12-29T17:02:43;8.30;1.00
21849;DHT22;11089;49.852;19.700;2022-12-29T17:05:46;8.20;1.00
21849;DHT22;11089;49.852;19.700;2022-12-29T17:08:48;8.10;1.00
21849;DHT22;11089;49.852;19.700;2022-12-29T17:11:54;8.10;1.00
21849;DHT22;11089;49.852;19.700;2022-12-29T17:18:10;8.10;1.00
21849;DHT22;11089;49.852;19.700;2022-12-29T17:21:12;8.10;1.00
21849;DHT22;11089;49.852;19.700;2022-12-29T17:24:18;8.00;1.00
21849;DHT22;11089;49.852;19.700;2022-12-29T17:27:31;8.00;1.00
21849;DHT22;11089;49.852;19.700;2022-12-29T17:30:34;8.00;1.00
21849;DHT22;11089;49.852;19.700;2022-12-29T17:33:37;8.10;1.00
21849;DHT22;11089;49.852;19.700;2022-12-29T17:36:39;8.10;1.00
21849;DHT22;11089;49.852;19.700;2022-12-29T17:39:40;8.20;1.00
21849;DHT22;11089;49.852;19.700;2022-12-29T17:42:46;8.10;1.00
21849;DHT22;11089;49.852;19.700;2022-12-29T17:45:55;8.00;1.00
21849;DHT22;11089;49.852;19.700;2022-12-29T17:48:56;8.00;1.00
21849;DHT22;11089;49.852;19.700;2022-12-29T17:51:57;8.20;1.00
21849;DHT22;11089;49.852;19.700;2022-12-29T17:54:58;8.30;1.00
21849;DHT22;11089;49.852;19.700;2022-12-29T17:58:00;8.50;1.00
21849;DHT22;11089;49.852;19.700;2022-12-29T18:01:02;8.50;1.00
21849;DHT22;11089;49.852;19.700;2022-12-29T18:04:04;8.60;1.00
21849;DHT22;11089;49.852;19.700;2022-12-29T18:07:09;8.60;1.00
21849;DHT22;11089;49.852;19.700;2022-12-29T18:10:11;8.60;1.00
21849;DHT22;11089;49.852;19.700;2022-12-29T18:13:19;8.60;1.00
21849;DHT22;11089;49.852;19.700;2022-12-29T18:16:21;8.60;1.00
21849;DHT22;11089;49.852;19.700;2022-12-29T18:19:23;8.60;1.00
21849;DHT22;11089;49.852;19.700;2022-12-29T18:22:24;8.50;1.00
21849;DHT22;11089;49.852;19.700;2022-12-29T18:28:44;8.30;1.00
21849;DHT22;11089;49.852;19.700;2022-12-29T18:31:48;8.20;1.00
21849;DHT22;11089;49.852;19.700;2022-12-29T18:34:49;8.10;1.00
21849;DHT22;11089;49.852;19.700;2022-12-29T18:37:50;8.10;1.00
21849;DHT22;11089;49.852;19.700;2022-12-29T18:40:52;8.10;1.00
21849;DHT22;11089;49.852;19.700;2022-12-29T18:43:53;8.10;1.00
21849;DHT22;11089;49.852;19.700;2022-12-29T18:46:54;8.00;1.00
21849;DHT22;11089;49.852;19.700;2022-12-29T18:49:55;8.10;1.00
21849;DHT22;11089;49.852;19.700;2022-12-29T18:52:56;8.10;1.00
21849;DHT22;11089;49.852;19.700;2022-12-29T18:55:57;8.20;1.00
21849;DHT22;11089;49.852;19.700;2022-12-29T18:58:58;8.20;1.00
21849;DHT22;11089;49.852;19.700;2022-12-29T19:01:59;8.10;1.00
21849;DHT22;11089;49.852;19.700;2022-12-29T19:05:00;8.10;1.00
21849;DHT22;11089;49.852;19.700;2022-12-29T19:08:01;8.10;1.00
21849;DHT22;11089;49.852;19.700;2022-12-29T19:11:02;8.20;1.00
21849;DHT22;11089;49.852;19.700;2022-12-29T19:14:03;8.20;1.00
21849;DHT22;11089;49.852;19.700;2022-12-29T19:17:09;8.20;1.00
21849;DHT22;11089;49.852;19.700;2022-12-29T19:23:24;8.00;1.00
21849;DHT22;11089;49.852;19.700;2022-12-29T19:26:31;7.90;1.00
21849;DHT22;11089;49.852;19.700;2022-12-29T19:29:33;7.90;1.00
21849;DHT22;11089;49.852;19.700;2022-12-29T19:32:34;7.80;1.00
21849;DHT22;11089;49.852;19.700;2022-12-29T19:35:35;7.80;1.00
21849;DHT22;11089;49.852;19.700;2022-12-29T19:38:37;7.70;1.00
21849;DHT22;11089;49.852;19.700;2022-12-29T19:41:38;7.70;1.00
21849;DHT22;11089;49.852;19.700;2022-12-29T19:44:38;7.60;1.00
21849;DHT22;11089;49.852;19.700;2022-12-29T19:47:40;7.60;1.00
21849;DHT22;11089;49.852;19.700;2022-12-29T19:50:41;7.50;1.00
21849;DHT22;11089;49.852;19.700;2022-12-29T19:53:42;7.60;1.00
21849;DHT22;11089;49.852;19.700;2022-12-29T19:56:44;7.70;1.00
21849;DHT22;11089;49.852;19.700;2022-12-29T19:59:45;7.70;1.00
21849;DHT22;11089;49.852;19.700;2022-12-29T20:02:46;7.70;1.00
21849;DHT22;11089;49.852;19.700;2022-12-29T20:05:48;7.80;1.00
21849;DHT22;11089;49.852;19.700;2022-12-29T20:08:49;7.80;1.00
21849;DHT22;11089;49.852;19.700;2022-12-29T20:11:50;7.80;1.00
21849;DHT22;11089;49.852;19.700;2022-12-29T20:14:51;7.80;1.00
21849;DHT22;11089;49.852;19.700;2022-12-29T20:17:52;7.80;1.00
21849;DHT22;11089;49.852;19.700;2022-12-29T20:20:53;7.80;1.00
21849;DHT22;11089;49.852;19.700;2022-12-29T20:24:00;7.80;1.00
21849;DHT22;11089;49.852;19.700;2022-12-29T20:27:01;7.70;1.00
21849;DHT22;11089;49.852;19.700;2022-12-29T20:30:02;7.70;1.00
21849;DHT22;11089;49.852;19.700;2022-12-29T20:33:04;7.70;1.00
21849;DHT22;11089;49.852;19.700;2022-12-29T20:36:08;7.70;1.00
21849;DHT22;11089;49.852;19.700;2022-12-29T20:39:14;7.80;1.00
21849;DHT22;11089;49.852;19.700;2022-12-29T20:42:15;7.90;1.00
21849;DHT22;11089;49.852;19.700;2022-12-29T20:45:17;7.90;1.00
21849;DHT22;11089;49.852;19.700;2022-12-29T20:48:18;7.90;1.00
21849;DHT22;11089;49.852;19.700;2022-12-29T20:51:19;8.00;1.00
21849;DHT22;11089;49.852;19.700;2022-12-29T20:54:21;8.00;1.00
21849;DHT22;11089;49.852;19.700;2022-12-29T20:57:22;8.00;1.00
21849;DHT22;11089;49.852;19.700;2022-12-29T21:00:23;8.00;1.00
21849;DHT22;11089;49.852;19.700;2022-12-29T21:03:25;8.00;1.00
21849;DHT22;11089;49.852;19.700;2022-12-29T21:06:26;8.20;1.00
21849;DHT22;11089;49.852;19.700;2022-12-29T21:09:27;8.30;1.00
21849;DHT22;11089;49.852;19.700;2022-12-29T21:12:28;8.30;1.00
21849;DHT22;11089;49.852;19.700;2022-12-29T21:15:31;8.20;1.00
21849;DHT22;11089;49.852;19.700;2022-12-29T21:18:32;8.20;1.00
21849;DHT22;11089;49.852;19.700;2022-12-29T21:21:33;8.30;1.00
21849;DHT22;11089;49.852;19.700;2022-12-29T21:24:34;8.30;1.00
21849;DHT22;11089;49.852;19.700;2022-12-29T21:27:37;8.30;1.00
21849;DHT22;11089;49.852;19.700;2022-12-29T21:30:39;8.40;1.00
21849;DHT22;11089;49.852;19.700;2022-12-29T21:33:40;8.40;1.00
21849;DHT22;11089;49.852;19.700;2022-12-29T21:36:41;8.50;1.00
21849;DHT22;11089;49.852;19.700;2022-12-29T21:39:41;8.50;1.00
21849;DHT22;11089;49.852;19.700;2022-12-29T21:42:43;8.60;1.00
21849;DHT22;11089;49.852;19.700;2022-12-29T21:45:48;8.60;1.00
21849;DHT22;11089;49.852;19.700;2022-12-29T21:48:49;8.60;1.00
21849;DHT22;11089;49.852;19.700;2022-12-29T21:51:50;8.60;1.00
21849;DHT22;11089;49.852;19.700;2022-12-29T21:54:54;8.70;1.00
21849;DHT22;11089;49.852;19.700;2022-12-29T21:58:01;8.70;1.00
21849;DHT22;11089;49.852;19.700;2022-12-29T22:01:15;8.60;1.00
21849;DHT22;11089;49.852;19.700;2022-12-29T22:04:29;8.60;1.00
21849;DHT22;11089;49.852;19.700;2022-12-29T22:07:43;8.50;1.00
21849;DHT22;11089;49.852;19.700;2022-12-29T22:10:58;8.50;1.00